Time;durP1;ratioP1;P1;durP2;ratioP2;P2;SDS_P1;SDS_P2;PMS_P1;PMS_P2;Temp;Humidity;BMP_temperature;BMP_pressure;BME280_temperature;BME280_humidity;BME280_pressure;Samples;Min_cycle;Max_cycle;Signal;HPM_P1;HPM_P2
2022/02/16 00:00:10;;;;;;;42.07;32.97;;;8.10;99.90;;;;;;5072666;28;20186;-68
2022/02/16 00:02:38;;;;;;;46.33;33.57;;;8.10;99.90;;;;;;5070714;28;20225;-69
2022/02/16 00:05:11;;;;;;;44.57;33.20;;;8.10;99.90;;;;;;5068178;28;20202;-68
2022/02/16 00:07:40;;;;;;;43.20;32.60;;;8.10;99.90;;;;;;5066841;28;20640;-69
2022/02/16 00:10:12;;;;;;;45.27;34.33;;;8.10;99.90;;;;;;5071897;28;20205;-69
2022/02/16 00:12:39;;;;;;;49.00;33.77;;;8.20;99.90;;;;;;5068569;28;20195;-68
2022/02/16 00:15:09;;;;;;;45.97;33.80;;;8.20;99.90;;;;;;5068532;28;20201;-68
2022/02/16 00:17:36;;;;;;;45.30;34.50;;;8.10;99.90;;;;;;5082726;28;20251;-69
2022/02/16 00:20:08;;;;;;;48.70;35.13;;;8.10;99.90;;;;;;5083982;28;20662;-69
2022/02/16 00:22:35;;;;;;;48.43;34.17;;;8.20;99.90;;;;;;5078348;28;20186;-68
2022/02/16 00:25:02;;;;;;;45.97;33.63;;;8.20;99.90;;;;;;5079612;28;20207;-69
2022/02/16 00:27:29;;;;;;;44.20;32.87;;;8.20;99.90;;;;;;5068875;28;20285;-69
2022/02/16 00:29:55;;;;;;;48.23;34.60;;;8.20;99.90;;;;;;5066912;28;20554;-69
2022/02/16 00:32:22;;;;;;;45.27;34.23;;;8.10;99.90;;;;;;5078203;28;20210;-69
2022/02/16 00:34:48;;;;;;;44.13;34.07;;;8.20;99.90;;;;;;5081118;28;20193;-69
2022/02/16 00:37:15;;;;;;;51.63;37.17;;;8.20;99.90;;;;;;5076547;28;20203;-69
2022/02/16 00:39:42;;;;;;;46.93;35.73;;;8.20;99.90;;;;;;5066886;28;20187;-68
2022/02/16 00:42:08;;;;;;;46.80;35.97;;;8.20;99.90;;;;;;5083300;28;20197;-69
2022/02/16 00:44:34;;;;;;;49.40;36.13;;;8.30;99.90;;;;;;5078502;28;20224;-68
2022/02/16 00:47:01;;;;;;;52.23;35.10;;;8.20;99.90;;;;;;5078312;28;20275;-68
2022/02/16 00:49:27;;;;;;;48.10;35.57;;;8.20;99.90;;;;;;5068062;28;20662;-69
2022/02/16 00:51:53;;;;;;;53.00;35.43;;;8.20;99.90;;;;;;5078773;28;20186;-69
2022/02/16 00:54:19;;;;;;;50.80;35.63;;;8.20;99.90;;;;;;5071581;28;20213;-69
2022/02/16 00:56:46;;;;;;;48.57;36.37;;;8.20;99.90;;;;;;5059001;28;20182;-69
2022/02/16 00:59:13;;;;;;;48.10;35.63;;;8.20;99.90;;;;;;5062300;28;20211;-69
2022/02/16 01:01:39;;;;;;;45.20;35.23;;;8.20;99.90;;;;;;5066470;28;20691;-68
2022/02/16 01:04:05;;;;;;;48.30;35.23;;;8.10;99.90;;;;;;5080229;28;20225;-69
2022/02/16 01:06:32;;;;;;;44.97;34.27;;;8.10;99.90;;;;;;5065222;28;20573;-69
2022/02/16 01:08:58;;;;;;;45.73;35.40;;;8.10;99.90;;;;;;5078191;28;20190;-69
2022/02/16 01:11:25;;;;;;;49.33;36.93;;;8.10;99.90;;;;;;5083684;28;20186;-69
2022/02/16 01:13:52;;;;;;;47.17;35.13;;;8.10;99.90;;;;;;5073797;28;20955;-69
2022/02/16 01:16:18;;;;;;;48.00;34.87;;;8.10;99.90;;;;;;5071043;28;20191;-70
2022/02/16 01:18:45;;;;;;;54.13;37.43;;;8.10;99.90;;;;;;5066725;28;20186;-69
2022/02/16 01:21:11;;;;;;;51.00;35.23;;;8.10;99.90;;;;;;5079436;28;20641;-68
2022/02/16 01:23:37;;;;;;;48.40;35.23;;;8.10;99.90;;;;;;5067094;28;20259;-69
2022/02/16 01:26:04;;;;;;;51.97;35.37;;;8.10;99.90;;;;;;5072083;28;20190;-69
2022/02/16 01:28:30;;;;;;;46.50;35.07;;;8.10;99.90;;;;;;5074511;28;20739;-69
2022/02/16 01:30:56;;;;;;;52.27;36.10;;;8.10;99.90;;;;;;5075135;28;20205;-69
2022/02/16 01:33:22;;;;;;;51.73;37.07;;;8.10;99.90;;;;;;5067005;28;20202;-69
2022/02/16 01:35:49;;;;;;;47.47;36.47;;;8.10;99.90;;;;;;5073059;28;20197;-69
2022/02/16 01:38:15;;;;;;;47.97;36.67;;;8.20;99.90;;;;;;5064827;28;20191;-69
2022/02/16 01:40:41;;;;;;;49.53;36.10;;;8.20;99.90;;;;;;5077777;28;20190;-69
2022/02/16 01:43:07;;;;;;;53.47;37.90;;;8.30;99.90;;;;;;5078923;28;20662;-70
2022/02/16 01:45:35;;;;;;;54.40;36.97;;;8.30;99.90;;;;;;5069971;28;20335;-68
2022/02/16 01:48:02;;;;;;;51.70;38.40;;;8.30;99.90;;;;;;5068901;28;20193;-69
2022/02/16 01:50:28;;;;;;;47.03;36.87;;;8.30;99.90;;;;;;5066002;28;20182;-70
2022/02/16 01:52:54;;;;;;;51.60;37.10;;;8.30;99.90;;;;;;5071336;28;20189;-69
2022/02/16 01:55:21;;;;;;;54.03;37.13;;;8.30;99.90;;;;;;5082916;28;20214;-69
2022/02/16 01:57:49;;;;;;;53.37;36.47;;;8.30;99.90;;;;;;5079339;28;20190;-69
2022/02/16 02:00:16;;;;;;;47.70;36.50;;;8.30;99.90;;;;;;5078488;28;20190;-69
2022/02/16 02:02:42;;;;;;;54.50;36.37;;;8.40;99.90;;;;;;5082555;28;20832;-69
2022/02/16 02:05:11;;;;;;;50.80;36.27;;;8.40;99.90;;;;;;5068448;28;20213;-68
2022/02/16 02:07:40;;;;;;;47.37;34.63;;;8.40;99.90;;;;;;5065615;28;20183;-69
2022/02/16 02:10:09;;;;;;;47.40;35.00;;;8.40;99.90;;;;;;5067569;28;20194;-69
2022/02/16 02:12:53;;;;;;;48.77;34.43;;;8.50;99.90;;;;;;5064841;28;20290;-69
2022/02/16 02:15:24;;;;;;;49.70;35.80;;;8.50;99.90;;;;;;5080418;28;20659;-69
2022/02/16 02:17:51;;;;;;;52.83;36.87;;;8.50;99.90;;;;;;5059620;28;20189;-69
2022/02/16 02:20:25;;;;;;;44.87;34.20;;;8.60;99.90;;;;;;5070931;28;20187;-69
2022/02/16 02:22:53;;;;;;;53.20;36.30;;;8.60;99.90;;;;;;5076403;28;20191;-69
2022/02/16 02:25:20;;;;;;;46.47;34.27;;;8.60;99.90;;;;;;5074799;28;20271;-69
2022/02/16 02:27:48;;;;;;;49.43;35.27;;;8.70;99.90;;;;;;5064750;28;20240;-69
2022/02/16 02:30:16;;;;;;;55.23;36.40;;;8.70;99.90;;;;;;5076341;28;20729;-69
2022/02/16 02:32:48;;;;;;;46.03;34.83;;;8.70;99.90;;;;;;5070579;28;20202;-69
2022/02/16 02:35:14;;;;;;;53.30;37.93;;;8.70;99.90;;;;;;5066873;28;20197;-69
2022/02/16 02:37:42;;;;;;;48.23;36.13;;;8.70;99.90;;;;;;5072932;28;20198;-69
2022/02/16 02:40:10;;;;;;;51.63;35.13;;;8.70;99.90;;;;;;5080281;28;20190;-69
2022/02/16 02:42:41;;;;;;;41.80;34.33;;;8.70;99.90;;;;;;5069205;28;20202;-69
2022/02/16 02:45:09;;;;;;;52.23;37.47;;;8.70;99.90;;;;;;5070146;28;20202;-69
2022/02/16 02:47:35;;;;;;;50.77;36.83;;;8.70;99.90;;;;;;5080367;28;20232;-70
2022/02/16 02:50:02;;;;;;;49.03;36.70;;;8.70;99.90;;;;;;5083740;28;20576;-69
2022/02/16 02:52:31;;;;;;;50.20;35.67;;;8.70;99.90;;;;;;5080322;28;20193;-69
2022/02/16 02:54:57;;;;;;;51.10;36.03;;;8.70;99.90;;;;;;5071084;28;20667;-68
2022/02/16 02:57:23;;;;;;;50.93;36.40;;;8.70;99.90;;;;;;5071227;28;20229;-69
2022/02/16 02:59:50;;;;;;;45.53;34.73;;;8.70;99.90;;;;;;5077943;28;20218;-69
2022/02/16 03:02:16;;;;;;;47.73;34.63;;;8.70;99.90;;;;;;5076958;28;20187;-69
2022/02/16 03:04:42;;;;;;;46.57;35.03;;;8.60;99.90;;;;;;5072827;28;20225;-69
2022/02/16 03:07:08;;;;;;;45.30;32.63;;;8.60;99.90;;;;;;5083204;28;21008;-69
2022/02/16 03:09:34;;;;;;;41.87;32.47;;;8.60;99.90;;;;;;5079333;28;20187;-68
2022/02/16 03:12:01;;;;;;;47.43;31.90;;;8.50;99.90;;;;;;5072805;28;20224;-69
2022/02/16 03:14:28;;;;;;;39.23;29.93;;;8.50;99.90;;;;;;5088821;28;20183;-69
2022/02/16 03:16:55;;;;;;;40.57;29.30;;;8.50;99.90;;;;;;5069524;28;20286;-69
2022/02/16 03:19:22;;;;;;;38.03;29.10;;;8.50;99.90;;;;;;5074527;28;20187;-69
2022/02/16 03:21:48;;;;;;;36.30;28.30;;;8.50;99.90;;;;;;5078428;28;20199;-69
2022/02/16 03:24:14;;;;;;;36.70;27.50;;;8.40;99.90;;;;;;5064713;28;20555;-69
2022/02/16 03:26:41;;;;;;;35.00;28.07;;;8.40;99.90;;;;;;5071792;28;20183;-70
2022/02/16 03:29:07;;;;;;;34.63;28.17;;;8.40;99.90;;;;;;5054478;28;20198;-69
2022/02/16 03:31:33;;;;;;;38.23;28.77;;;8.40;99.90;;;;;;5067573;28;20213;-69
2022/02/16 03:33:59;;;;;;;38.50;27.07;;;8.40;99.90;;;;;;5065058;28;20203;-69
2022/02/16 03:36:26;;;;;;;34.50;26.83;;;8.40;99.90;;;;;;5082479;28;20183;-70
2022/02/16 03:38:54;;;;;;;39.90;27.67;;;8.40;99.90;;;;;;5069685;28;20213;-69
2022/02/16 03:41:21;;;;;;;35.40;27.33;;;8.40;99.90;;;;;;5079462;28;20274;-69
2022/02/16 03:43:47;;;;;;;36.83;27.33;;;8.40;99.90;;;;;;5067177;28;20647;-69
2022/02/16 03:46:13;;;;;;;36.90;28.43;;;8.40;99.90;;;;;;5082383;28;20232;-69
2022/02/16 03:48:41;;;;;;;35.03;26.33;;;8.40;99.90;;;;;;5078218;28;20229;-69
2022/02/16 03:51:07;;;;;;;40.00;28.63;;;8.40;99.90;;;;;;5083761;28;20200;-69
2022/02/16 03:53:33;;;;;;;35.63;27.03;;;8.40;99.90;;;;;;5082021;28;20606;-69
2022/02/16 03:56:01;;;;;;;36.53;28.47;;;8.40;99.90;;;;;;5074001;28;20202;-69
2022/02/16 03:58:27;;;;;;;38.77;28.30;;;8.40;99.90;;;;;;5069467;28;20210;-69
2022/02/16 04:00:54;;;;;;;38.13;28.70;;;8.40;99.90;;;;;;5069578;28;20194;-70
2022/02/16 04:03:20;;;;;;;37.47;27.47;;;8.40;99.90;;;;;;5073199;28;20179;-69
2022/02/16 04:05:46;;;;;;;35.00;27.40;;;8.40;99.90;;;;;;5077882;28;20210;-69
2022/02/16 04:08:12;;;;;;;32.93;26.37;;;8.40;99.90;;;;;;5078238;28;20183;-69
2022/02/16 04:10:38;;;;;;;33.03;25.90;;;8.40;99.90;;;;;;5073668;28;20201;-69
2022/02/16 04:13:05;;;;;;;32.87;26.53;;;8.40;99.90;;;;;;5069848;28;20210;-69
2022/02/16 04:15:33;;;;;;;34.10;25.57;;;8.40;99.90;;;;;;5070110;28;20191;-69
2022/02/16 04:18:00;;;;;;;36.47;26.23;;;8.30;99.90;;;;;;5080328;28;20194;-69
2022/02/16 04:20:27;;;;;;;34.93;25.90;;;8.30;99.90;;;;;;5077602;28;20262;-69
2022/02/16 04:22:53;;;;;;;35.53;26.13;;;8.30;99.90;;;;;;5067016;28;20636;-69
2022/02/16 04:25:20;;;;;;;32.57;25.33;;;8.30;99.90;;;;;;5072185;28;20294;-69
2022/02/16 04:27:47;;;;;;;31.77;24.87;;;8.30;99.90;;;;;;5068127;28;20194;-69
2022/02/16 04:30:14;;;;;;;31.27;23.27;;;8.30;99.90;;;;;;5068541;28;20191;-69
2022/02/16 04:32:41;;;;;;;28.83;22.13;;;8.30;99.90;;;;;;5079811;28;20204;-68
2022/02/16 04:35:09;;;;;;;28.67;22.67;;;8.20;99.90;;;;;;5076299;28;20260;-70
2022/02/16 04:37:36;;;;;;;27.73;21.60;;;8.10;99.90;;;;;;5074893;28;20198;-70
2022/02/16 04:40:05;;;;;;;30.87;22.30;;;8.10;99.90;;;;;;5082750;28;20204;-69
2022/02/16 04:42:31;;;;;;;31.03;21.50;;;8.10;99.90;;;;;;5068939;28;20705;-69
2022/02/16 04:44:57;;;;;;;29.13;21.60;;;8.10;99.90;;;;;;5084590;28;20898;-69
2022/02/16 04:47:24;;;;;;;27.40;22.03;;;8.10;99.90;;;;;;5067189;28;20722;-69
2022/02/16 04:49:50;;;;;;;29.13;21.07;;;8.10;99.90;;;;;;5067711;28;20271;-69
2022/02/16 04:52:16;;;;;;;29.20;20.33;;;8.10;99.90;;;;;;5078425;28;20817;-69
2022/02/16 04:54:42;;;;;;;24.80;20.10;;;8.10;99.90;;;;;;5081552;28;20206;-69
2022/02/16 04:57:09;;;;;;;26.23;20.60;;;8.00;99.90;;;;;;5065287;28;20280;-69
2022/02/16 04:59:35;;;;;;;28.43;20.57;;;8.00;99.90;;;;;;5082198;28;20202;-69
2022/02/16 05:02:01;;;;;;;27.77;20.70;;;8.00;99.90;;;;;;5066915;28;20213;-69
2022/02/16 05:04:28;;;;;;;24.57;20.47;;;8.00;99.90;;;;;;5070874;28;20916;-69
2022/02/16 05:06:54;;;;;;;27.63;21.87;;;8.10;99.90;;;;;;5057897;28;20185;-69
2022/02/16 05:09:20;;;;;;;27.83;19.67;;;8.10;99.90;;;;;;5057870;28;20546;-69
2022/02/16 05:11:46;;;;;;;25.67;19.53;;;8.10;99.90;;;;;;5065796;28;20565;-69
2022/02/16 05:14:13;;;;;;;27.63;20.07;;;8.10;99.90;;;;;;5079914;28;20201;-69
2022/02/16 05:16:39;;;;;;;27.93;19.00;;;8.20;99.90;;;;;;5080964;28;20260;-69
2022/02/16 05:19:05;;;;;;;26.13;18.33;;;8.20;99.90;;;;;;5068663;28;20385;-69
2022/02/16 05:21:32;;;;;;;26.73;20.23;;;8.20;99.90;;;;;;5060399;28;20610;-69
2022/02/16 05:23:58;;;;;;;27.93;19.80;;;8.20;99.90;;;;;;5073235;28;20256;-69
2022/02/16 05:26:25;;;;;;;28.30;19.60;;;8.20;99.90;;;;;;5064201;28;20639;-69
2022/02/16 05:28:51;;;;;;;24.87;19.67;;;8.30;99.90;;;;;;5065957;28;20675;-69
2022/02/16 05:31:17;;;;;;;27.17;19.77;;;8.40;99.90;;;;;;5079959;28;20182;-69
2022/02/16 05:33:44;;;;;;;25.97;18.43;;;8.40;99.90;;;;;;5072846;28;20681;-69
2022/02/16 05:36:10;;;;;;;23.73;18.30;;;8.40;99.90;;;;;;5067962;28;20190;-69
2022/02/16 05:38:36;;;;;;;25.40;19.17;;;8.50;99.90;;;;;;5074874;28;20206;-69
2022/02/16 05:41:02;;;;;;;26.13;18.60;;;8.60;99.90;;;;;;5065030;28;20190;-69
2022/02/16 05:43:28;;;;;;;21.40;18.47;;;8.70;99.90;;;;;;5073689;28;20291;-69
2022/02/16 05:45:55;;;;;;;21.83;18.30;;;8.70;99.90;;;;;;5077003;28;20225;-69
2022/02/16 05:48:21;;;;;;;22.40;17.60;;;8.80;99.90;;;;;;5066316;28;20297;-69
2022/02/16 05:50:49;;;;;;;22.10;17.93;;;8.90;99.90;;;;;;5067434;28;20198;-70
2022/02/16 05:53:16;;;;;;;21.00;17.27;;;9.00;99.90;;;;;;5067627;28;20225;-69
2022/02/16 05:55:43;;;;;;;21.57;18.37;;;9.00;99.90;;;;;;5065588;28;20198;-69
2022/02/16 05:58:09;;;;;;;23.97;18.07;;;9.00;99.90;;;;;;5072051;28;20699;-69
2022/02/16 06:00:36;;;;;;;25.33;17.67;;;9.00;99.90;;;;;;5075091;28;20388;-69
2022/02/16 06:03:03;;;;;;;22.90;16.97;;;9.00;99.90;;;;;;5067113;28;20198;-69
2022/02/16 06:05:29;;;;;;;23.07;17.57;;;9.10;99.90;;;;;;5075874;28;20551;-69
2022/02/16 06:07:55;;;;;;;21.27;17.27;;;9.10;99.90;;;;;;5079913;28;20191;-69
2022/02/16 06:10:22;;;;;;;22.27;17.73;;;9.10;99.90;;;;;;5077650;28;20225;-68
2022/02/16 06:12:48;;;;;;;21.80;17.13;;;9.10;99.90;;;;;;5070358;28;20698;-68
2022/02/16 06:15:14;;;;;;;23.60;18.63;;;9.20;99.90;;;;;;5071771;28;20199;-69
2022/02/16 06:17:41;;;;;;;20.57;17.53;;;9.20;99.90;;;;;;5071924;28;20198;-70
2022/02/16 06:20:08;;;;;;;23.40;17.03;;;9.30;99.90;;;;;;5083977;28;20221;-69
2022/02/16 06:22:35;;;;;;;22.50;17.50;;;9.30;99.90;;;;;;5074177;28;20640;-69
2022/02/16 06:25:03;;;;;;;22.70;18.13;;;9.30;99.90;;;;;;5079794;28;20253;-69
2022/02/16 06:27:31;;;;;;;22.80;17.80;;;9.40;99.90;;;;;;5079870;28;20205;-69
2022/02/16 06:29:58;;;;;;;25.10;18.27;;;9.40;99.90;;;;;;5070941;28;20187;-69
2022/02/16 06:32:27;;;;;;;23.17;18.27;;;9.40;99.90;;;;;;5057105;28;20206;-69
2022/02/16 06:34:53;;;;;;;23.60;18.27;;;9.50;99.90;;;;;;5083659;28;20191;-68
2022/02/16 06:37:20;;;;;;;23.77;18.70;;;9.50;99.90;;;;;;5075451;28;20230;-69
2022/02/16 06:39:46;;;;;;;24.73;18.27;;;9.50;99.90;;;;;;5071370;28;20527;-69
2022/02/16 06:42:12;;;;;;;27.10;18.67;;;9.50;99.90;;;;;;5077894;28;20687;-69
2022/02/16 06:44:39;;;;;;;25.10;18.43;;;9.60;99.90;;;;;;5071757;28;20211;-69
2022/02/16 06:47:05;;;;;;;23.90;18.43;;;9.60;99.90;;;;;;5075532;28;20193;-69
2022/02/16 06:49:31;;;;;;;26.40;18.50;;;9.70;99.90;;;;;;5083713;28;20963;-70
2022/02/16 06:51:58;;;;;;;24.63;17.97;;;9.70;99.90;;;;;;5082014;28;20221;-69
2022/02/16 06:54:24;;;;;;;24.40;17.83;;;9.80;99.90;;;;;;5076500;28;20201;-69
2022/02/16 06:56:50;;;;;;;23.37;18.43;;;9.90;99.90;;;;;;5072322;28;20631;-69
2022/02/16 06:59:16;;;;;;;23.37;18.13;;;9.90;99.90;;;;;;5076303;28;20789;-69
2022/02/16 07:01:43;;;;;;;20.83;17.03;;;10.00;99.90;;;;;;5069662;28;20312;-69
2022/02/16 07:04:09;;;;;;;25.27;19.17;;;10.00;99.90;;;;;;5075163;28;20229;-69
2022/02/16 07:06:35;;;;;;;22.03;16.83;;;10.10;99.90;;;;;;5072841;28;20201;-69
2022/02/16 07:09:02;;;;;;;22.97;18.33;;;10.10;99.90;;;;;;5073552;28;20217;-69
2022/02/16 07:11:30;;;;;;;20.43;17.80;;;10.10;99.90;;;;;;5074716;28;20282;-68
2022/02/16 07:13:56;;;;;;;23.07;18.07;;;10.20;99.90;;;;;;5066445;28;20642;-69
2022/02/16 07:16:23;;;;;;;24.80;17.57;;;10.20;99.90;;;;;;5080532;28;20193;-69
2022/02/16 07:18:49;;;;;;;22.57;17.77;;;10.30;99.90;;;;;;5075321;28;20545;-69
2022/02/16 07:21:16;;;;;;;23.87;16.93;;;10.30;99.90;;;;;;5084226;28;20190;-69
2022/02/16 07:23:46;;;;;;;27.27;15.33;;;10.30;99.90;;;;;;5083732;28;20193;-69
2022/02/16 07:26:12;;;;;;;19.37;15.27;;;10.40;99.90;;;;;;5084989;28;20266;-69
2022/02/16 07:28:39;;;;;;;21.40;17.23;;;10.50;99.90;;;;;;5079253;28;22720;-70
2022/02/16 07:31:05;;;;;;;22.37;17.73;;;10.50;99.90;;;;;;5078914;28;21076;-69
2022/02/16 07:33:31;;;;;;;26.20;18.33;;;10.70;99.90;;;;;;5058667;28;20682;-69
2022/02/16 07:35:58;;;;;;;20.43;16.67;;;10.70;99.90;;;;;;5072116;28;20217;-68
2022/02/16 07:38:24;;;;;;;25.20;17.63;;;10.80;99.90;;;;;;5075375;28;20246;-69
2022/02/16 07:40:51;;;;;;;21.13;16.13;;;10.90;99.90;;;;;;5071627;28;20339;-69
2022/02/16 07:43:17;;;;;;;20.23;16.63;;;10.90;99.90;;;;;;5067293;28;20297;-69
2022/02/16 07:45:44;;;;;;;19.03;15.67;;;10.90;99.90;;;;;;5074194;28;20245;-70
2022/02/16 07:48:11;;;;;;;21.00;15.80;;;10.90;99.90;;;;;;5077684;28;20191;-69
2022/02/16 07:50:38;;;;;;;18.07;14.90;;;11.00;99.90;;;;;;5075611;28;20192;-69
2022/02/16 07:53:04;;;;;;;20.50;16.53;;;11.00;99.90;;;;;;5081617;28;20281;-69
2022/02/16 07:55:32;;;;;;;21.00;17.17;;;11.00;99.90;;;;;;5078643;28;20310;-69
2022/02/16 07:58:01;;;;;;;21.07;16.70;;;11.00;99.90;;;;;;5076872;28;20218;-69
2022/02/16 08:00:30;;;;;;;21.13;16.23;;;11.10;99.90;;;;;;5070667;28;20198;-69
2022/02/16 08:02:58;;;;;;;23.07;17.10;;;11.10;99.90;;;;;;5065532;28;20278;-69
2022/02/16 08:05:27;;;;;;;22.47;16.53;;;11.20;99.90;;;;;;5073827;28;20703;-70
2022/02/16 08:07:54;;;;;;;24.73;16.77;;;11.40;99.90;;;;;;5067410;28;20186;-69
2022/02/16 08:10:21;;;;;;;23.10;17.20;;;11.70;99.90;;;;;;5084551;28;20193;-69
2022/02/16 08:12:58;;;;;;;17.47;15.17;;;12.30;99.90;;;;;;5074700;28;20188;-68
2022/02/16 08:15:31;;;;;;;21.80;14.30;;;12.30;99.90;;;;;;5083545;28;20205;-69
2022/02/16 08:17:58;;;;;;;15.70;13.10;;;12.10;99.90;;;;;;5069142;28;20302;-69
2022/02/16 08:20:25;;;;;;;17.87;13.27;;;12.00;99.90;;;;;;5075720;28;20747;-69
2022/02/16 08:22:52;;;;;;;18.07;13.80;;;12.00;99.90;;;;;;5069626;28;20202;-69
2022/02/16 08:25:19;;;;;;;19.20;13.23;;;12.00;99.90;;;;;;5069838;28;20214;-69
2022/02/16 08:27:47;;;;;;;19.40;12.67;;;12.00;99.90;;;;;;5072651;28;20196;-70
2022/02/16 08:30:14;;;;;;;14.50;11.50;;;12.00;99.90;;;;;;5079285;28;20209;-69
2022/02/16 08:32:41;;;;;;;14.53;11.03;;;12.00;99.90;;;;;;5084935;28;20889;-69
2022/02/16 08:35:14;;;;;;;15.27;10.87;;;12.10;99.90;;;;;;5077636;28;20326;-70
2022/02/16 08:37:41;;;;;;;12.90;10.57;;;12.10;99.90;;;;;;5073392;28;20237;-70
2022/02/16 08:40:09;;;;;;;13.97;10.23;;;12.20;99.90;;;;;;5076423;28;20221;-69
2022/02/16 08:42:36;;;;;;;17.80;10.93;;;12.20;99.90;;;;;;5070795;28;20201;-69
2022/02/16 08:45:02;;;;;;;14.67;10.43;;;12.30;99.90;;;;;;5081746;28;20256;-69
2022/02/16 08:47:30;;;;;;;12.77;9.73;;;12.30;99.90;;;;;;5075890;28;20219;-69
2022/02/16 08:49:56;;;;;;;13.90;10.50;;;12.30;99.90;;;;;;5083231;28;20210;-69
2022/02/16 08:52:23;;;;;;;14.83;10.13;;;12.40;99.90;;;;;;5074687;28;20631;-69
2022/02/16 08:54:49;;;;;;;15.50;10.77;;;12.50;99.90;;;;;;5077361;28;20197;-69
2022/02/16 08:57:17;;;;;;;12.87;10.47;;;12.50;99.90;;;;;;5063204;28;20187;-69
2022/02/16 08:59:45;;;;;;;15.43;9.73;;;12.50;99.90;;;;;;5074356;28;20241;-69
2022/02/16 09:02:12;;;;;;;13.70;9.03;;;12.50;99.90;;;;;;5070699;28;20194;-69
2022/02/16 09:04:39;;;;;;;10.80;8.90;;;12.60;99.90;;;;;;5064379;28;20214;-69
2022/02/16 09:09:51;;;;;;;13.80;8.70;;;12.60;99.90;;;;;;5079111;28;20630;-69
2022/02/16 09:12:18;;;;;;;9.57;7.93;;;12.70;99.90;;;;;;5079803;28;20654;-69
2022/02/16 09:14:44;;;;;;;11.73;8.60;;;12.70;99.90;;;;;;5076505;28;20190;-69
2022/02/16 09:17:11;;;;;;;10.60;7.60;;;12.90;99.90;;;;;;5075737;28;20582;-69
2022/02/16 09:19:38;;;;;;;11.73;8.10;;;12.90;99.90;;;;;;5081905;28;20555;-69
2022/02/16 09:22:06;;;;;;;9.63;7.60;;;12.90;99.90;;;;;;5079896;28;20194;-69
2022/02/16 09:24:33;;;;;;;10.20;7.13;;;12.90;99.90;;;;;;5068517;28;20774;-69
2022/02/16 09:27:00;;;;;;;11.77;7.80;;;12.90;99.90;;;;;;5081663;28;20540;-69
2022/02/16 09:29:28;;;;;;;10.13;7.83;;;13.00;99.90;;;;;;5073673;28;20190;-69
2022/02/16 09:31:55;;;;;;;12.10;8.23;;;12.90;99.90;;;;;;5084215;28;20280;-68
2022/02/16 09:34:23;;;;;;;11.83;8.37;;;13.00;99.90;;;;;;5069943;28;20282;-70
2022/02/16 09:36:50;;;;;;;8.80;7.53;;;13.10;99.90;;;;;;5074971;28;20779;-69
2022/02/16 09:39:17;;;;;;;8.93;6.90;;;13.10;99.90;;;;;;5080912;28;20194;-69
2022/02/16 09:41:44;;;;;;;12.53;7.37;;;13.10;99.90;;;;;;5075758;28;20228;-69
2022/02/16 09:44:25;;;;;;;11.67;6.97;;;13.20;99.90;;;;;;5072941;28;20190;-69
2022/02/16 09:46:52;;;;;;;10.03;7.10;;;13.20;99.90;;;;;;5068435;28;20199;-68
2022/02/16 09:49:18;;;;;;;10.67;7.03;;;13.30;99.90;;;;;;5076400;28;20189;-68
2022/02/16 09:51:44;;;;;;;10.30;7.13;;;13.30;99.90;;;;;;5054154;28;20194;-69
2022/02/16 09:54:12;;;;;;;8.37;6.80;;;13.30;99.90;;;;;;5068019;28;20187;-67
2022/02/16 09:56:43;;;;;;;11.60;6.80;;;13.30;99.90;;;;;;5076913;28;20239;-68
2022/02/16 09:59:13;;;;;;;9.03;6.30;;;13.40;99.90;;;;;;5073539;28;20185;-68
2022/02/16 10:02:02;;;;;;;8.57;6.07;;;13.50;99.90;;;;;;5044662;28;20908;-69
2022/02/16 10:04:35;;;;;;;9.20;6.27;;;13.70;99.90;;;;;;5080927;28;20543;-69
2022/02/16 10:07:26;;;;;;;9.33;6.67;;;14.00;99.90;;;;;;5066199;28;20204;-69
2022/02/16 10:09:53;;;;;;;9.23;6.30;;;14.10;99.90;;;;;;5084423;28;20951;-69
2022/02/16 10:12:33;;;;;;;8.63;6.57;;;14.10;99.90;;;;;;5079901;28;20195;-69
2022/02/16 10:15:00;;;;;;;8.93;6.23;;;14.20;99.90;;;;;;5061588;28;20527;-69
2022/02/16 10:17:30;;;;;;;7.10;6.03;;;14.30;99.90;;;;;;5080196;28;20190;-68
2022/02/16 10:20:07;;;;;;;10.50;6.50;;;14.30;99.90;;;;;;5082888;28;20224;-69
2022/02/16 10:22:48;;;;;;;8.53;6.47;;;14.40;99.90;;;;;;5055837;28;20232;-69
2022/02/16 10:25:27;;;;;;;9.53;6.77;;;14.70;99.90;;;;;;5077365;28;20224;-69
2022/02/16 10:28:20;;;;;;;11.97;8.17;;;14.90;99.90;;;;;;5074657;28;20190;-69
2022/02/16 10:31:07;;;;;;;11.93;7.27;;;15.10;99.90;;;;;;5082478;28;20205;-69
2022/02/16 10:33:37;;;;;;;8.60;6.63;;;15.40;99.90;;;;;;5080928;28;20761;-69
2022/02/16 10:36:19;;;;;;;10.40;7.20;;;15.70;99.90;;;;;;5068925;28;20199;-69
2022/02/16 10:39:06;;;;;;;10.30;7.50;;;16.10;99.90;;;;;;5070869;28;20190;-69
2022/02/16 10:41:54;;;;;;;10.13;6.90;;;16.40;99.90;;;;;;5081557;28;20298;-69
2022/02/16 10:44:31;;;;;;;9.53;7.50;;;16.60;99.90;;;;;;5066004;28;20337;-69
2022/02/16 10:47:07;;;;;;;11.07;7.03;;;16.90;99.90;;;;;;5105788;28;20186;-69
2022/02/16 10:49:37;;;;;;;9.77;7.83;;;17.20;99.90;;;;;;5082522;28;20198;-69
2022/02/16 10:52:18;;;;;;;9.20;7.43;;;17.50;99.90;;;;;;5080049;28;20677;-69
2022/02/16 10:55:02;;;;;;;11.20;7.27;;;17.70;99.90;;;;;;5088845;28;20194;-68
2022/02/16 10:57:29;;;;;;;8.43;6.90;;;17.90;99.90;;;;;;5090502;28;20204;-69
2022/02/16 10:59:58;;;;;;;8.83;6.70;;;18.10;99.90;;;;;;5082281;28;20273;-69
2022/02/16 11:02:25;;;;;;;15.60;6.93;;;18.20;99.90;;;;;;5088683;27;20313;-69
2022/02/16 11:04:54;;;;;;;11.47;6.97;;;18.30;99.90;;;;;;5077012;28;20313;-69
2022/02/16 11:07:24;;;;;;;9.10;7.37;;;18.10;99.90;;;;;;5082435;28;20205;-69
2022/02/16 11:09:57;;;;;;;7.60;6.80;;;18.20;99.90;;;;;;5074081;28;20260;-69
2022/02/16 11:12:24;;;;;;;8.07;6.80;;;17.80;99.90;;;;;;5073369;28;20474;-69
2022/02/16 11:14:53;;;;;;;10.73;7.40;;;17.70;99.90;;;;;;5077719;28;20666;-69
2022/02/16 11:17:26;;;;;;;8.80;7.10;;;17.50;99.90;;;;;;5075381;28;20186;-69
2022/02/16 11:20:20;;;;;;;10.13;7.50;;;17.30;99.90;;;;;;5073528;28;20202;-69
2022/02/16 11:23:00;;;;;;;9.67;7.30;;;17.00;99.90;;;;;;5081784;28;20182;-69
2022/02/16 11:25:36;;;;;;;10.53;7.03;;;16.80;99.90;;;;;;5071246;28;20295;-69
2022/02/16 11:28:11;;;;;;;10.23;6.33;;;16.80;99.90;;;;;;5093375;27;20229;-69
2022/02/16 11:30:44;;;;;;;9.53;6.63;;;16.70;99.90;;;;;;5079567;28;20268;-69
2022/02/16 11:33:24;;;;;;;9.13;6.43;;;16.70;99.90;;;;;;5089800;28;20315;-69
2022/02/16 11:36:00;;;;;;;10.07;7.07;;;16.50;99.90;;;;;;5080972;28;20220;-69
2022/02/16 11:38:46;;;;;;;10.13;5.87;;;16.50;99.90;;;;;;5075144;28;20205;-69
2022/02/16 11:41:26;;;;;;;9.03;5.50;;;16.50;99.90;;;;;;5078807;28;20202;-69
2022/02/16 11:44:00;;;;;;;9.30;6.23;;;16.40;99.90;;;;;;5078831;28;20193;-69
2022/02/16 11:46:51;;;;;;;9.97;6.97;;;16.40;99.90;;;;;;5074264;28;20247;-69
2022/02/16 11:49:30;;;;;;;8.87;7.10;;;16.40;99.90;;;;;;5085778;28;20252;-69
2022/02/16 11:51:59;;;;;;;9.87;6.97;;;16.40;99.90;;;;;;5060493;28;20807;-69
2022/02/16 11:55:01;;;;;;;9.73;7.73;;;16.40;99.90;;;;;;5084654;28;20209;-69
2022/02/16 11:57:46;;;;;;;9.37;7.20;;;16.30;99.90;;;;;;5069443;28;20752;-69
2022/02/16 12:00:18;;;;;;;10.10;7.53;;;16.20;99.90;;;;;;5075907;28;20284;-69
2022/02/16 12:06:01;;;;;;;9.80;7.53;;;16.20;99.90;;;;;;5064410;28;20210;-69
2022/02/16 12:08:37;;;;;;;9.90;7.60;;;16.10;99.90;;;;;;5074668;28;20213;-69
2022/02/16 12:11:30;;;;;;;8.77;7.17;;;16.10;99.90;;;;;;5048998;28;20328;-68
2022/02/16 12:14:16;;;;;;;9.50;7.43;;;16.00;99.90;;;;;;5071518;28;20191;-68
2022/02/16 12:16:46;;;;;;;8.27;7.37;;;16.00;99.90;;;;;;5067315;28;20846;-68
2022/02/16 12:19:16;;;;;;;14.53;8.10;;;16.00;99.90;;;;;;5082967;28;20190;-68
2022/02/16 12:21:55;;;;;;;9.07;7.10;;;16.10;99.90;;;;;;5066491;28;20190;-69
2022/02/16 12:24:26;;;;;;;11.47;7.13;;;16.00;99.90;;;;;;5054235;28;20240;-68
2022/02/16 12:26:59;;;;;;;13.43;7.83;;;15.90;99.90;;;;;;5080950;28;20189;-68
2022/02/16 12:29:29;;;;;;;11.20;8.03;;;15.90;99.90;;;;;;5068111;28;20815;-68
2022/02/16 12:32:02;;;;;;;10.20;7.17;;;15.70;99.90;;;;;;5078005;28;20216;-68
2022/02/16 12:34:34;;;;;;;9.90;8.43;;;15.60;99.90;;;;;;5080037;28;20186;-68
2022/02/16 12:37:11;;;;;;;9.13;8.23;;;15.70;99.90;;;;;;5075634;28;20194;-68
2022/02/16 12:39:37;;;;;;;10.50;8.53;;;15.60;99.90;;;;;;5072365;28;20232;-68
2022/02/16 12:42:13;;;;;;;12.40;8.50;;;15.60;99.90;;;;;;5076425;28;20210;-68
2022/02/16 12:44:43;;;;;;;10.30;8.53;;;15.50;99.90;;;;;;5076176;28;20305;-69
2022/02/16 12:47:11;;;;;;;10.80;8.67;;;15.60;99.90;;;;;;5085815;28;20567;-70
2022/02/16 12:49:40;;;;;;;13.17;9.07;;;15.60;99.90;;;;;;5072785;28;20191;-69